createdAt,value
2017-01-14T00:00:37.794Z,18.37
2017-01-14T00:01:18.507Z,18.42
2017-01-14T00:01:59.147Z,18.46
2017-01-14T00:02:39.807Z,18.44
2017-01-14T00:03:20.460Z,18.43
2017-01-14T00:04:01.084Z,18.42
2017-01-14T00:04:41.718Z,18.42
2017-01-14T00:05:22.395Z,18.42
2017-01-14T00:06:03.026Z,18.44
2017-01-14T00:06:44.375Z,18.39
2017-01-14T00:07:25.101Z,18.42
2017-01-14T00:08:05.686Z,18.49
2017-01-14T00:08:46.319Z,18.36
2017-01-14T00:09:27.046Z,18.43
2017-01-14T00:10:07.696Z,18.5
2017-01-14T00:10:48.418Z,18.52
2017-01-14T00:11:29.139Z,18.47
2017-01-14T00:12:09.777Z,18.36
2017-01-14T00:12:50.502Z,18.47
2017-01-14T00:13:31.143Z,18.44
2017-01-14T00:14:11.839Z,18.47
2017-01-14T00:14:52.502Z,18.5
2017-01-14T00:15:33.147Z,18.43
2017-01-14T00:16:13.814Z,18.44
2017-01-14T00:16:54.448Z,18.36
2017-01-14T00:17:35.074Z,18.44
2017-01-14T00:18:15.741Z,18.46
2017-01-14T00:18:56.367Z,18.4
2017-01-14T00:19:37.088Z,18.47
2017-01-14T00:20:17.734Z,18.4
2017-01-14T00:20:58.364Z,18.36
2017-01-14T00:21:39.134Z,18.44
2017-01-14T00:22:19.769Z,18.36
2017-01-14T00:23:00.493Z,18.43
2017-01-14T00:23:41.151Z,18.4
2017-01-14T00:24:21.801Z,18.4
2017-01-14T00:25:02.468Z,18.36
2017-01-14T00:25:43.102Z,18.37
2017-01-14T00:26:23.742Z,18.42
2017-01-14T00:27:04.383Z,18.39
2017-01-14T00:27:45.007Z,18.39
2017-01-14T00:28:25.700Z,18.37
2017-01-14T00:29:06.341Z,18.4
2017-01-14T00:29:46.971Z,18.4
2017-01-14T00:30:27.664Z,18.36
2017-01-14T00:31:08.354Z,18.4
2017-01-14T00:31:48.981Z,18.4
2017-01-14T00:32:29.649Z,18.42
2017-01-14T00:33:10.301Z,18.42
2017-01-14T00:33:50.943Z,18.43
2017-01-14T00:34:31.572Z,18.4
2017-01-14T00:35:12.316Z,18.44
2017-01-14T00:35:53.015Z,18.42
2017-01-14T00:36:33.666Z,18.37
2017-01-14T00:37:14.294Z,18.37
2017-01-14T00:37:54.959Z,18.28
2017-01-14T00:38:35.590Z,18.33
2017-01-14T00:39:16.224Z,18.31
2017-01-14T00:39:56.867Z,18.4
2017-01-14T00:40:37.512Z,18.37
2017-01-14T00:41:18.146Z,18.42
2017-01-14T00:41:58.778Z,18.37
2017-01-14T00:42:39.409Z,18.39
2017-01-14T00:43:20.090Z,18.4
2017-01-14T00:44:00.800Z,18.42
2017-01-14T00:44:41.439Z,18.43
2017-01-14T00:45:22.089Z,18.39
2017-01-14T00:46:02.753Z,18.42
2017-01-14T00:46:43.391Z,18.34
2017-01-14T00:47:24.021Z,18.4
2017-01-14T00:48:04.688Z,18.4
2017-01-14T00:48:45.320Z,18.37
2017-01-14T00:49:25.988Z,18.39
2017-01-14T00:50:06.675Z,18.39
2017-01-14T00:50:47.336Z,18.46
2017-01-14T00:51:28.002Z,18.33
2017-01-14T00:52:08.706Z,18.42
2017-01-14T00:52:49.332Z,18.42
2017-01-14T00:53:29.968Z,18.4
2017-01-14T00:54:10.679Z,18.27
2017-01-14T00:54:51.373Z,18.42
2017-01-14T00:55:32.004Z,18.29
2017-01-14T00:56:12.682Z,18.25
2017-01-14T00:56:53.334Z,18.34
2017-01-14T00:57:33.965Z,18.39
2017-01-14T00:58:14.593Z,18.24
2017-01-14T00:58:55.259Z,18.28
2017-01-14T00:59:35.897Z,18.22
2017-01-14T01:00:16.561Z,18.28
2017-01-14T01:00:57.262Z,18.29
2017-01-14T01:01:37.962Z,18.29
2017-01-14T01:02:18.619Z,18.43
2017-01-14T01:02:59.324Z,18.42
2017-01-14T01:03:40.027Z,18.31
2017-01-14T01:04:20.656Z,18.31
2017-01-14T01:05:01.333Z,18.31
2017-01-14T01:05:42.064Z,18.28
2017-01-14T01:06:22.716Z,18.29
2017-01-14T01:07:03.370Z,18.34
2017-01-14T01:07:44.009Z,18.29
2017-01-14T01:08:24.648Z,18.29
2017-01-14T01:09:05.293Z,18.22
2017-01-14T01:09:46.014Z,18.33
2017-01-14T01:10:26.656Z,18.31
2017-01-14T01:11:07.283Z,18.28
2017-01-14T01:11:47.981Z,18.28
2017-01-14T01:12:28.734Z,18.25
2017-01-14T01:13:09.370Z,18.29
2017-01-14T01:13:50.025Z,18.27
2017-01-14T01:14:30.714Z,18.27
2017-01-14T01:15:11.410Z,18.25
2017-01-14T01:15:51.990Z,18.28
2017-01-14T01:16:32.671Z,18.27
2017-01-14T01:17:13.352Z,18.31
2017-01-14T01:17:53.988Z,18.25
2017-01-14T01:18:34.656Z,18.29
2017-01-14T01:19:15.288Z,18.29
2017-01-14T01:19:55.922Z,18.33
2017-01-14T01:20:36.616Z,18.34
2017-01-14T01:21:17.343Z,18.25
2017-01-14T01:21:57.972Z,18.25
2017-01-14T01:22:38.638Z,18.29
2017-01-14T01:23:19.358Z,18.29
2017-01-14T01:23:59.996Z,18.27
2017-01-14T01:24:40.680Z,18.24
2017-01-14T01:25:21.411Z,18.19
2017-01-14T01:26:02.042Z,18.21
2017-01-14T01:26:42.687Z,18.29
2017-01-14T01:27:23.364Z,18.29
2017-01-14T01:28:04.071Z,18.24
2017-01-14T01:28:44.699Z,18.25
2017-01-14T01:29:25.468Z,18.19
2017-01-14T01:30:06.131Z,18.18
2017-01-14T01:30:46.756Z,18.27
2017-01-14T01:31:27.387Z,18.22
2017-01-14T01:32:08.081Z,18.25
2017-01-14T01:32:48.732Z,18.19
2017-01-14T01:33:29.374Z,18.17
2017-01-14T01:34:10.040Z,18.19
2017-01-14T01:34:50.679Z,18.24
2017-01-14T01:35:31.314Z,18.21
2017-01-14T01:36:12.019Z,18.21
2017-01-14T01:36:52.741Z,18.13
2017-01-14T01:37:33.390Z,18.22
2017-01-14T01:38:14.058Z,18.24
2017-01-14T01:38:54.774Z,18.19
2017-01-14T01:39:35.459Z,18.19
2017-01-14T01:40:16.111Z,18.19
2017-01-14T01:40:56.800Z,18.24
2017-01-14T01:41:37.523Z,18.21
2017-01-14T01:42:18.150Z,18.21
2017-01-14T01:42:58.830Z,18.21
2017-01-14T01:43:39.546Z,18.24
2017-01-14T01:44:20.179Z,18.22
2017-01-14T01:45:00.820Z,18.19
2017-01-14T01:45:41.510Z,18.24
2017-01-14T01:46:22.190Z,18.18
2017-01-14T01:47:02.844Z,18.22
2017-01-14T01:47:43.543Z,18.21
2017-01-14T01:48:24.271Z,18.15
2017-01-14T01:49:04.908Z,18.17
2017-01-14T01:49:45.552Z,18.17
2017-01-14T01:50:26.205Z,18.19
2017-01-14T01:51:06.830Z,18.22
2017-01-14T01:51:47.586Z,18.27
2017-01-14T01:52:28.304Z,18.19
2017-01-14T01:53:09.011Z,18.13
2017-01-14T01:53:49.645Z,18.12
2017-01-14T01:54:30.275Z,18.21
2017-01-14T01:55:10.974Z,18.22
2017-01-14T01:55:51.603Z,18.18
2017-01-14T01:56:32.263Z,18.07
2017-01-14T01:57:12.931Z,18.12
2017-01-14T01:57:53.556Z,18.07
2017-01-14T01:58:34.300Z,18.15
2017-01-14T01:59:14.956Z,18.18
2017-01-14T01:59:55.681Z,18.07
2017-01-14T02:00:36.324Z,18.21
2017-01-14T02:01:17.045Z,18.1
2017-01-14T02:01:57.725Z,18.18
2017-01-14T02:02:38.370Z,18.12
2017-01-14T02:03:18.999Z,18.15
2017-01-14T02:03:59.655Z,18.1
2017-01-14T02:04:40.290Z,18.13
2017-01-14T02:05:20.928Z,18.18
2017-01-14T02:06:01.594Z,18.21
2017-01-14T02:06:42.233Z,18.21
2017-01-14T02:07:22.880Z,18.17
2017-01-14T02:08:03.583Z,18.18
2017-01-14T02:08:44.213Z,18.15
2017-01-14T02:09:24.844Z,18.09
2017-01-14T02:10:05.536Z,18.1
2017-01-14T02:10:46.179Z,18.1
2017-01-14T02:11:26.815Z,18.1
2017-01-14T02:12:07.469Z,18.13
2017-01-14T02:12:48.156Z,18.17
2017-01-14T02:13:28.798Z,18.09
2017-01-14T02:14:09.510Z,18.15
2017-01-14T02:14:50.208Z,18.07
2017-01-14T02:15:30.837Z,18.09
2017-01-14T02:16:11.578Z,18.09
2017-01-14T02:16:52.271Z,18.13
2017-01-14T02:17:32.982Z,18.12
2017-01-14T02:18:13.631Z,18.1
2017-01-14T02:18:54.285Z,18.13
2017-01-14T02:19:34.913Z,18.12
2017-01-14T02:20:15.549Z,18.15
2017-01-14T02:20:56.231Z,18.17
2017-01-14T02:21:36.944Z,18.18
2017-01-14T02:22:17.565Z,18.18
2017-01-14T02:22:58.234Z,18.03
2017-01-14T02:23:38.887Z,18.1
2017-01-14T02:24:19.515Z,18.13
2017-01-14T02:25:00.147Z,18.13
2017-01-14T02:25:40.856Z,18.17
2017-01-14T02:26:21.513Z,18.15
2017-01-14T02:27:02.181Z,18.17
2017-01-14T02:27:42.883Z,18.15
2017-01-14T02:28:23.529Z,18.15
2017-01-14T02:29:04.158Z,18.17
2017-01-14T02:29:44.886Z,18.09
2017-01-14T02:30:25.592Z,18.12
2017-01-14T02:31:06.217Z,18.22
2017-01-14T02:31:46.888Z,18.07
2017-01-14T02:32:27.548Z,18.06
2017-01-14T02:33:08.182Z,18.13
2017-01-14T02:33:48.845Z,18.07
2017-01-14T02:34:29.546Z,18.17
2017-01-14T02:35:10.173Z,18.1
2017-01-14T02:35:50.851Z,18.13
2017-01-14T02:36:31.495Z,18.06
2017-01-14T02:37:12.227Z,18.1
2017-01-14T02:37:52.874Z,18.13
2017-01-14T02:38:33.541Z,18.1
2017-01-14T02:39:14.249Z,18.07
2017-01-14T02:39:54.881Z,18.09
2017-01-14T02:40:35.549Z,18.19
2017-01-14T02:41:16.298Z,18.07
2017-01-14T02:41:56.989Z,18.18
2017-01-14T02:42:37.628Z,18.09
2017-01-14T02:43:18.297Z,18.17
2017-01-14T02:43:58.925Z,18.12
2017-01-14T02:44:39.564Z,18.15
2017-01-14T02:45:20.252Z,18.04
2017-01-14T02:46:00.969Z,18.15
2017-01-14T02:46:41.601Z,18.1
2017-01-14T02:47:22.264Z,18.15
2017-01-14T02:48:02.933Z,18.17
2017-01-14T02:48:43.557Z,18.13
2017-01-14T02:49:24.186Z,18.15
2017-01-14T02:50:04.861Z,18.1
2017-01-14T02:50:46.230Z,18.1
2017-01-14T02:51:27.153Z,18.06
2017-01-14T02:52:07.858Z,18.1
2017-01-14T02:52:48.681Z,18.09
2017-01-14T02:53:29.633Z,18.1
2017-01-14T02:54:10.266Z,18.13
2017-01-14T02:54:50.909Z,18.12
2017-01-14T02:55:31.594Z,18.13
2017-01-14T02:56:12.221Z,18.07
2017-01-14T02:56:52.864Z,18.13
2017-01-14T02:57:33.536Z,18.07
2017-01-14T02:58:14.166Z,18.04
2017-01-14T02:58:54.794Z,18.06
2017-01-14T02:59:35.458Z,18.06
2017-01-14T03:00:16.083Z,18.12
2017-01-14T03:00:56.797Z,18.1
2017-01-14T03:01:37.493Z,18.12
2017-01-14T03:02:18.120Z,18.13
2017-01-14T03:02:58.748Z,18.12
2017-01-14T03:03:39.420Z,18.07
2017-01-14T03:04:20.062Z,18.1
2017-01-14T03:05:00.695Z,18.06
2017-01-14T03:05:41.367Z,18.13
2017-01-14T03:06:22.085Z,18.15
2017-01-14T03:07:02.721Z,18.12
2017-01-14T03:07:43.361Z,18.13
2017-01-14T03:08:24.127Z,18.09
2017-01-14T03:09:04.762Z,18.07
2017-01-14T03:09:45.416Z,18.12
2017-01-14T03:10:26.117Z,18.07
2017-01-14T03:11:06.822Z,18.07
2017-01-14T03:11:47.376Z,18.03
2017-01-14T03:12:28.067Z,18.02
2017-01-14T03:13:08.758Z,18.07
2017-01-14T03:13:49.405Z,18.09
2017-01-14T03:14:30.105Z,18.06
2017-01-14T03:15:10.809Z,18.02
2017-01-14T03:15:51.454Z,18.04
2017-01-14T03:16:32.116Z,18.06
2017-01-14T03:17:12.838Z,18.06
2017-01-14T03:17:53.463Z,18.03
2017-01-14T03:18:34.086Z,18.07
2017-01-14T03:19:14.781Z,18.06
2017-01-14T03:19:55.443Z,18.07
2017-01-14T03:20:36.079Z,18.06
2017-01-14T03:21:16.771Z,18.03
2017-01-14T03:21:57.482Z,18.04
2017-01-14T03:22:38.116Z,18.12
2017-01-14T03:23:18.800Z,18.07
2017-01-14T03:23:59.493Z,18.1
2017-01-14T03:24:40.120Z,18.13
2017-01-14T03:25:20.867Z,18.1
2017-01-14T03:26:01.523Z,18.1
2017-01-14T03:26:42.149Z,18.06
2017-01-14T03:27:22.775Z,18.09
2017-01-14T03:28:03.456Z,18.07
2017-01-14T03:28:44.086Z,18.07
2017-01-14T03:29:24.717Z,18.09
2017-01-14T03:30:05.377Z,18.06
2017-01-14T03:30:46.050Z,18.04
2017-01-14T03:31:26.699Z,18.06
2017-01-14T03:32:07.382Z,18.07
2017-01-14T03:32:48.003Z,18.03
2017-01-14T03:33:28.636Z,18.03
2017-01-14T03:34:09.326Z,18.06
2017-01-14T03:34:50.033Z,18.02
2017-01-14T03:35:30.666Z,18.09
2017-01-14T03:36:11.356Z,18.07
2017-01-14T03:36:52.070Z,18.02
2017-01-14T03:37:32.696Z,18.03
2017-01-14T03:38:13.318Z,17.97
2017-01-14T03:38:54.003Z,17.95
2017-01-14T03:39:34.653Z,18.04
2017-01-14T03:40:15.287Z,18
2017-01-14T03:40:55.959Z,18.12
2017-01-14T03:41:36.625Z,18.02
2017-01-14T03:42:17.272Z,18
2017-01-14T03:42:57.950Z,18.04
2017-01-14T03:43:38.634Z,18.09
2017-01-14T03:44:19.264Z,17.94
2017-01-14T03:44:59.917Z,18.02
2017-01-14T03:45:40.609Z,18
2017-01-14T03:46:21.234Z,17.97
2017-01-14T03:47:01.934Z,17.95
2017-01-14T03:47:42.654Z,17.97
2017-01-14T03:48:23.322Z,18.04
2017-01-14T03:49:03.970Z,18
2017-01-14T03:49:44.676Z,18.03
2017-01-14T03:50:25.307Z,17.95
2017-01-14T03:51:05.948Z,17.97
2017-01-14T03:51:46.633Z,18.03
2017-01-14T03:52:27.359Z,17.97
2017-01-14T03:53:07.987Z,18.02
2017-01-14T03:53:48.647Z,17.94
2017-01-14T03:54:29.381Z,18.02
2017-01-14T03:55:10.047Z,17.99
2017-01-14T03:55:50.697Z,17.92
2017-01-14T03:56:31.407Z,17.99
2017-01-14T03:57:12.044Z,17.99
2017-01-14T03:57:52.675Z,17.89
2017-01-14T03:58:33.367Z,17.89
2017-01-14T03:59:14.093Z,17.88
2017-01-14T03:59:54.720Z,17.91
2017-01-14T04:00:35.382Z,17.97
2017-01-14T04:01:16.146Z,17.88
2017-01-14T04:01:56.782Z,17.82
2017-01-14T04:02:37.409Z,17.94
2017-01-14T04:03:18.071Z,17.94
2017-01-14T04:03:58.699Z,17.94
2017-01-14T04:04:39.342Z,17.91
2017-01-14T04:05:20.060Z,17.95
2017-01-14T04:06:00.697Z,17.95
2017-01-14T04:06:41.320Z,17.91
2017-01-14T04:07:22.014Z,17.88
2017-01-14T04:08:02.722Z,17.94
2017-01-14T04:08:43.349Z,17.89
2017-01-14T04:09:24.036Z,17.89
2017-01-14T04:10:04.763Z,17.91
2017-01-14T04:10:45.390Z,17.89
2017-01-14T04:11:26.089Z,17.92
2017-01-14T04:12:06.795Z,17.91
2017-01-14T04:12:47.430Z,17.88
2017-01-14T04:13:28.065Z,17.92
2017-01-14T04:14:08.780Z,17.87
2017-01-14T04:14:49.497Z,17.89
2017-01-14T04:15:30.142Z,17.92
2017-01-14T04:16:10.883Z,17.81
2017-01-14T04:16:51.610Z,17.85
2017-01-14T04:17:32.282Z,17.81
2017-01-14T04:18:12.911Z,17.82
2017-01-14T04:18:53.544Z,17.81
2017-01-14T04:19:34.267Z,17.88
2017-01-14T04:20:14.897Z,17.85
2017-01-14T04:20:55.571Z,17.85
2017-01-14T04:21:36.214Z,17.78
2017-01-14T04:22:16.848Z,17.78
2017-01-14T04:22:57.482Z,17.81
2017-01-14T04:23:38.156Z,17.81
2017-01-14T04:24:18.799Z,17.87
2017-01-14T04:24:59.451Z,17.84
2017-01-14T04:25:40.147Z,17.84
2017-01-14T04:26:20.806Z,17.76
2017-01-14T04:27:01.469Z,17.78
2017-01-14T04:27:42.174Z,17.74
2017-01-14T04:28:22.802Z,17.79
2017-01-14T04:29:03.441Z,17.79
2017-01-14T04:29:44.137Z,17.81
2017-01-14T04:30:24.840Z,17.78
2017-01-14T04:31:05.478Z,17.81
2017-01-14T04:31:46.139Z,17.81
2017-01-14T04:32:26.868Z,17.85
2017-01-14T04:33:07.500Z,17.78
2017-01-14T04:33:48.196Z,17.81
2017-01-14T04:34:28.894Z,17.76
2017-01-14T04:35:09.523Z,17.79
2017-01-14T04:35:50.151Z,17.78
2017-01-14T04:36:30.817Z,17.87
2017-01-14T04:37:11.460Z,17.79
2017-01-14T04:37:52.091Z,17.79
2017-01-14T04:38:32.803Z,17.79
2017-01-14T04:39:13.500Z,17.89
2017-01-14T04:39:54.127Z,17.88
2017-01-14T04:40:34.801Z,17.84
2017-01-14T04:41:15.547Z,17.81
2017-01-14T04:41:56.196Z,17.85
2017-01-14T04:42:36.838Z,17.78
2017-01-14T04:43:17.549Z,17.84
2017-01-14T04:43:58.178Z,17.78
2017-01-14T04:44:38.808Z,17.79
2017-01-14T04:45:19.513Z,17.85
2017-01-14T04:46:00.231Z,17.78
2017-01-14T04:46:40.863Z,17.7
2017-01-14T04:47:21.528Z,17.76
2017-01-14T04:48:02.162Z,17.76
2017-01-14T04:48:42.790Z,17.84
2017-01-14T04:49:23.452Z,17.76
2017-01-14T04:50:04.188Z,17.7
2017-01-14T04:50:44.927Z,17.7
2017-01-14T04:51:25.584Z,17.73
2017-01-14T04:52:06.240Z,17.71
2017-01-14T04:52:46.958Z,17.76
2017-01-14T04:53:27.590Z,17.81
2017-01-14T04:54:08.254Z,17.74
2017-01-14T04:54:48.909Z,17.74
2017-01-14T04:55:29.545Z,17.74
2017-01-14T04:56:10.219Z,17.74
2017-01-14T04:56:50.910Z,17.76
2017-01-14T04:57:31.573Z,17.74
2017-01-14T04:58:12.230Z,17.78
2017-01-14T04:58:52.932Z,17.76
2017-01-14T04:59:33.591Z,17.69
2017-01-14T05:00:14.218Z,17.7
2017-01-14T05:00:54.903Z,17.73
2017-01-14T05:01:35.619Z,17.71
2017-01-14T05:02:16.245Z,17.7
2017-01-14T05:02:56.974Z,17.7
2017-01-14T05:03:37.690Z,17.71
2017-01-14T05:04:18.352Z,17.76
2017-01-14T05:04:58.985Z,17.76
2017-01-14T05:05:39.655Z,17.73
2017-01-14T05:06:20.364Z,17.71
2017-01-14T05:07:00.995Z,17.78
2017-01-14T05:07:41.627Z,17.76
2017-01-14T05:08:22.337Z,17.76
2017-01-14T05:09:02.969Z,17.7
2017-01-14T05:09:43.623Z,17.7
2017-01-14T05:10:24.271Z,17.73
2017-01-14T05:11:04.896Z,17.78
2017-01-14T05:11:45.553Z,17.67
2017-01-14T05:12:26.219Z,17.74
2017-01-14T05:13:06.850Z,17.74
2017-01-14T05:13:47.540Z,17.71
2017-01-14T05:14:28.265Z,17.76
2017-01-14T05:15:08.925Z,17.73
2017-01-14T05:15:49.553Z,17.69
2017-01-14T05:16:30.243Z,17.73
2017-01-14T05:17:10.873Z,17.78
2017-01-14T05:17:51.510Z,17.76
2017-01-14T05:18:32.198Z,17.7
2017-01-14T05:19:12.915Z,17.66
2017-01-14T05:19:53.542Z,17.71
2017-01-14T05:20:34.220Z,17.73
2017-01-14T05:21:14.942Z,17.71
2017-01-14T05:21:55.623Z,17.7
2017-01-14T05:22:36.247Z,17.74
2017-01-14T05:23:16.910Z,17.71
2017-01-14T05:23:57.617Z,17.74
2017-01-14T05:24:38.259Z,17.71
2017-01-14T05:25:18.971Z,17.71
2017-01-14T05:25:59.673Z,17.74
2017-01-14T05:26:40.307Z,17.73
2017-01-14T05:27:20.971Z,17.7
2017-01-14T05:28:01.670Z,17.63
2017-01-14T05:28:42.390Z,17.74
2017-01-14T05:29:23.082Z,17.71
2017-01-14T05:30:03.727Z,17.74
2017-01-14T05:30:44.446Z,17.62
2017-01-14T05:31:25.073Z,17.63
2017-01-14T05:32:05.744Z,17.67
2017-01-14T05:32:46.422Z,17.55
2017-01-14T05:33:27.052Z,17.66
2017-01-14T05:34:07.703Z,17.63
2017-01-14T05:34:48.454Z,17.62
2017-01-14T05:35:29.114Z,17.59
2017-01-14T05:36:09.744Z,17.59
2017-01-14T05:36:50.418Z,17.67
2017-01-14T05:37:31.051Z,17.62
2017-01-14T05:38:11.680Z,17.64
2017-01-14T05:38:52.382Z,17.64
2017-01-14T05:39:33.096Z,17.67
2017-01-14T05:40:13.727Z,17.59
2017-01-14T05:40:54.405Z,17.7
2017-01-14T05:41:35.053Z,17.59
2017-01-14T05:42:15.674Z,17.66
2017-01-14T05:42:56.309Z,17.64
2017-01-14T05:43:36.957Z,17.63
2017-01-14T05:44:17.586Z,17.69
2017-01-14T05:44:58.335Z,17.64
2017-01-14T05:45:39.013Z,17.66
2017-01-14T05:46:19.734Z,17.57
2017-01-14T05:47:00.374Z,17.67
2017-01-14T05:47:41.089Z,17.66
2017-01-14T05:48:21.783Z,17.59
2017-01-14T05:49:02.411Z,17.63
2017-01-14T05:49:43.038Z,17.62
2017-01-14T05:50:23.708Z,17.62
2017-01-14T05:51:04.337Z,17.62
2017-01-14T05:51:45.050Z,17.62
2017-01-14T05:52:25.741Z,17.66
2017-01-14T05:53:06.442Z,17.67
2017-01-14T05:53:47.090Z,17.62
2017-01-14T05:54:27.765Z,17.69
2017-01-14T05:55:08.483Z,17.66
2017-01-14T05:55:49.110Z,17.63
2017-01-14T05:56:29.868Z,17.66
2017-01-14T05:57:10.535Z,17.63
2017-01-14T05:57:51.266Z,17.63
2017-01-14T05:58:31.912Z,17.67
2017-01-14T05:59:12.628Z,17.59
2017-01-14T05:59:53.310Z,17.63
2017-01-14T06:00:33.942Z,17.66
2017-01-14T06:01:14.583Z,17.57
2017-01-14T06:01:55.240Z,17.66
2017-01-14T06:02:35.869Z,17.66
2017-01-14T06:03:16.503Z,17.59
2017-01-14T06:03:57.163Z,17.62
2017-01-14T06:04:37.795Z,17.62
2017-01-14T06:05:18.423Z,17.66
2017-01-14T06:05:59.074Z,17.64
2017-01-14T06:06:39.711Z,17.64
2017-01-14T06:07:20.353Z,17.55
2017-01-14T06:08:01.022Z,17.63
2017-01-14T06:08:41.660Z,17.55
2017-01-14T06:09:22.323Z,17.62
2017-01-14T06:10:03.036Z,17.53
2017-01-14T06:10:43.676Z,17.59
2017-01-14T06:11:24.320Z,17.55
2017-01-14T06:12:05.066Z,17.54
2017-01-14T06:12:45.826Z,17.54
2017-01-14T06:13:26.450Z,17.57
2017-01-14T06:14:07.090Z,17.54
2017-01-14T06:14:47.747Z,17.57
2017-01-14T06:15:28.370Z,17.55
2017-01-14T06:16:09.049Z,17.51
2017-01-14T06:16:49.742Z,17.59
2017-01-14T06:17:33.104Z,17.57
2017-01-14T06:18:13.854Z,17.53
2017-01-14T06:18:54.485Z,17.55
2017-01-14T06:19:35.107Z,17.57
2017-01-14T06:20:15.751Z,17.57
2017-01-14T06:20:56.496Z,17.55
2017-01-14T06:21:37.136Z,17.55
2017-01-14T06:22:17.838Z,17.54
2017-01-14T06:22:58.471Z,17.55
2017-01-14T06:23:39.148Z,17.53
2017-01-14T06:24:19.762Z,17.59
2017-01-14T06:25:00.407Z,17.57
2017-01-14T06:25:41.081Z,17.62
2017-01-14T06:26:21.692Z,17.54
2017-01-14T06:27:02.329Z,17.51
2017-01-14T06:27:43.017Z,17.57
2017-01-14T06:28:23.711Z,17.59
2017-01-14T06:29:04.450Z,17.63
2017-01-14T06:29:45.089Z,17.5
2017-01-14T06:30:25.712Z,17.59
2017-01-14T06:31:06.347Z,17.54
2017-01-14T06:31:47.027Z,17.5
2017-01-14T06:32:27.652Z,17.54
2017-01-14T06:33:08.389Z,17.57
2017-01-14T06:33:49.044Z,17.5
2017-01-14T06:34:29.732Z,17.51
2017-01-14T06:35:10.331Z,17.51
2017-01-14T06:35:50.983Z,17.51
2017-01-14T06:36:31.702Z,17.55
2017-01-14T06:37:13.024Z,17.53
2017-01-14T06:37:53.653Z,17.54
2017-01-14T06:38:34.283Z,17.55
2017-01-14T06:39:15.011Z,17.5
2017-01-14T06:39:55.703Z,17.47
2017-01-14T06:40:36.322Z,17.47
2017-01-14T06:41:17.007Z,17.51
2017-01-14T06:41:57.737Z,17.54
2017-01-14T06:42:38.361Z,17.47
2017-01-14T06:43:18.987Z,17.51
2017-01-14T06:43:59.697Z,17.53
2017-01-14T06:44:40.398Z,17.48
2017-01-14T06:45:21.043Z,17.46
2017-01-14T06:46:01.727Z,17.5
2017-01-14T06:46:42.431Z,17.5
2017-01-14T06:47:23.056Z,17.62
2017-01-14T06:48:03.841Z,17.54
2017-01-14T06:48:44.486Z,17.53
2017-01-14T06:49:25.116Z,17.57
2017-01-14T06:50:05.746Z,17.53
2017-01-14T06:50:46.415Z,17.51
2017-01-14T06:51:27.114Z,17.43
2017-01-14T06:52:07.763Z,17.47
2017-01-14T06:52:48.443Z,17.46
2017-01-14T06:53:29.156Z,17.47
2017-01-14T06:54:09.784Z,17.41
2017-01-14T06:54:50.450Z,17.48
2017-01-14T06:55:31.125Z,17.46
2017-01-14T06:56:11.752Z,17.53
2017-01-14T06:56:52.417Z,17.48
2017-01-14T06:57:33.135Z,17.44
2017-01-14T06:58:13.772Z,17.43
2017-01-14T06:58:54.431Z,17.46
2017-01-14T06:59:35.080Z,17.44
2017-01-14T07:00:15.794Z,17.46
2017-01-14T07:00:56.448Z,17.4
2017-01-14T07:01:37.097Z,17.46
2017-01-14T07:02:17.811Z,17.46
2017-01-14T07:02:58.449Z,17.43
2017-01-14T07:03:39.104Z,17.47
2017-01-14T07:04:19.769Z,17.5
2017-01-14T07:05:00.402Z,17.51
2017-01-14T07:05:41.034Z,17.48
2017-01-14T07:06:21.696Z,17.53
2017-01-14T07:07:02.326Z,17.51
2017-01-14T07:07:42.995Z,17.5
2017-01-14T07:08:23.710Z,17.51
2017-01-14T07:09:04.353Z,17.53
2017-01-14T07:09:45.010Z,17.48
2017-01-14T07:10:25.735Z,17.47
2017-01-14T07:11:06.473Z,17.47
2017-01-14T07:11:47.104Z,17.46
2017-01-14T07:12:27.763Z,17.5
2017-01-14T07:13:08.436Z,17.46
2017-01-14T07:13:49.064Z,17.47
2017-01-14T07:14:29.735Z,17.53
2017-01-14T07:15:10.366Z,17.5
2017-01-14T07:15:50.991Z,17.46
2017-01-14T07:16:31.677Z,17.41
2017-01-14T07:17:12.377Z,17.47
2017-01-14T07:17:53.091Z,17.51
2017-01-14T07:18:33.735Z,17.43
2017-01-14T07:19:14.466Z,17.47
2017-01-14T07:19:55.161Z,17.38
2017-01-14T07:20:35.800Z,17.43
2017-01-14T07:21:16.464Z,17.43
2017-01-14T07:21:57.145Z,17.44
2017-01-14T07:22:37.771Z,17.48
2017-01-14T07:23:18.402Z,17.5
2017-01-14T07:23:59.110Z,17.46
2017-01-14T07:24:39.800Z,17.43
2017-01-14T07:25:20.441Z,17.44
2017-01-14T07:26:01.131Z,17.43
2017-01-14T07:26:41.850Z,17.41
2017-01-14T07:27:22.476Z,17.51
2017-01-14T07:28:03.148Z,17.46
2017-01-14T07:28:43.812Z,17.46
2017-01-14T07:29:24.441Z,17.46
2017-01-14T07:30:05.158Z,17.44
2017-01-14T07:30:45.838Z,17.5
2017-01-14T07:31:26.466Z,17.53
2017-01-14T07:32:07.099Z,17.47
2017-01-14T07:32:47.755Z,17.48
2017-01-14T07:33:28.398Z,17.46
2017-01-14T07:34:09.036Z,17.47
2017-01-14T07:34:49.755Z,17.43
2017-01-14T07:35:30.384Z,17.47
2017-01-14T07:36:11.025Z,17.48
2017-01-14T07:36:51.729Z,17.51
2017-01-14T07:37:32.468Z,17.43
2017-01-14T07:38:13.095Z,17.47
2017-01-14T07:38:53.839Z,17.43
2017-01-14T07:39:34.487Z,17.5
2017-01-14T07:40:15.199Z,17.4
2017-01-14T07:40:55.844Z,17.48
2017-01-14T07:41:36.513Z,17.44
2017-01-14T07:42:17.229Z,17.47
2017-01-14T07:42:57.862Z,17.47
2017-01-14T07:43:38.623Z,17.43
2017-01-14T07:44:19.284Z,17.46
2017-01-14T07:44:59.926Z,17.43
2017-01-14T07:45:40.554Z,17.43
2017-01-14T07:46:21.229Z,17.48
2017-01-14T07:47:01.856Z,17.4
2017-01-14T07:47:42.486Z,17.46
2017-01-14T07:48:23.148Z,17.38
2017-01-14T07:49:03.776Z,17.4
2017-01-14T07:49:44.407Z,17.41
2017-01-14T07:50:25.069Z,17.38
2017-01-14T07:51:05.778Z,17.38
2017-01-14T07:51:46.419Z,17.43
2017-01-14T07:52:27.107Z,17.46
2017-01-14T07:53:07.796Z,17.43
2017-01-14T07:53:48.434Z,17.46
2017-01-14T07:54:29.206Z,17.47
2017-01-14T07:55:09.878Z,17.43
2017-01-14T07:55:50.595Z,17.46
2017-01-14T07:56:31.241Z,17.47
2017-01-14T07:57:11.890Z,17.47
2017-01-14T07:57:52.540Z,17.47
2017-01-14T07:58:33.201Z,17.44
2017-01-14T07:59:13.856Z,17.44
2017-01-14T07:59:54.578Z,17.46
2017-01-14T08:00:35.205Z,17.4
2017-01-14T08:01:15.833Z,17.47
2017-01-14T08:01:56.503Z,17.47
2017-01-14T08:02:37.130Z,17.4
2017-01-14T08:03:17.858Z,17.48
2017-01-14T08:03:58.540Z,17.41
2017-01-14T08:04:39.157Z,17.43
2017-01-14T08:05:19.784Z,17.46
2017-01-14T08:06:00.431Z,17.47
2017-01-14T08:06:41.082Z,17.46
2017-01-14T08:07:21.729Z,17.41
2017-01-14T08:08:02.443Z,17.44
2017-01-14T08:08:43.081Z,17.38
2017-01-14T08:09:23.718Z,17.4
2017-01-14T08:10:04.407Z,17.4
2017-01-14T08:10:45.125Z,17.41
2017-01-14T08:11:25.749Z,17.41
2017-01-14T08:12:06.419Z,17.38
2017-01-14T08:12:47.148Z,17.46
2017-01-14T08:13:27.804Z,17.38
2017-01-14T08:14:08.451Z,17.4
2017-01-14T08:14:49.110Z,17.44
2017-01-14T08:15:29.789Z,17.41
2017-01-14T08:16:10.432Z,17.47
2017-01-14T08:16:51.139Z,17.38
2017-01-14T08:17:31.878Z,17.4
2017-01-14T08:18:12.507Z,17.36
2017-01-14T08:18:53.185Z,17.43
2017-01-14T08:19:33.874Z,17.38
2017-01-14T08:20:14.502Z,17.41
2017-01-14T08:20:55.183Z,17.38
2017-01-14T08:21:35.841Z,17.3
2017-01-14T08:22:16.520Z,17.4
2017-01-14T08:22:57.143Z,17.38
2017-01-14T08:23:37.824Z,17.43
2017-01-14T08:24:18.513Z,17.35
2017-01-14T08:24:59.138Z,17.41
2017-01-14T08:25:39.785Z,17.41
2017-01-14T08:26:20.492Z,17.4
2017-01-14T08:27:01.133Z,17.43
2017-01-14T08:27:41.884Z,17.4
2017-01-14T08:28:22.544Z,17.47
2017-01-14T08:29:03.199Z,17.38
2017-01-14T08:29:43.836Z,17.43
2017-01-14T08:30:24.548Z,17.41
2017-01-14T08:31:05.225Z,17.35
2017-01-14T08:31:45.852Z,17.41
2017-01-14T08:32:26.555Z,17.41
2017-01-14T08:33:07.208Z,17.36
2017-01-14T08:33:47.836Z,17.47
2017-01-14T08:34:28.472Z,17.32
2017-01-14T08:35:09.192Z,17.36
2017-01-14T08:35:49.828Z,17.35
2017-01-14T08:36:30.487Z,17.33
2017-01-14T08:37:11.190Z,17.33
2017-01-14T08:37:51.827Z,17.38
2017-01-14T08:38:32.457Z,17.41
2017-01-14T08:39:13.106Z,17.4
2017-01-14T08:39:53.866Z,17.44
2017-01-14T08:40:34.502Z,17.38
2017-01-14T08:41:15.154Z,17.41
2017-01-14T08:41:55.895Z,17.41
2017-01-14T08:42:36.526Z,17.46
2017-01-14T08:43:17.183Z,17.41
2017-01-14T08:43:57.908Z,17.4
2017-01-14T08:44:38.578Z,17.36
2017-01-14T08:45:19.221Z,17.4
2017-01-14T08:45:59.875Z,17.44